Terminal Aerodrome Forecast
Issued by NWS

Home | Current Version | Previous Version | Text Only | Print | Product List | Glossary Off
Versions: 1 2 3 4 5 6 7 8 9 10 11 12 13 14 15

786
FTUS43 KTOP 260346 AAA
TAFMHK
TAF AMD
KMHK 260346Z 2604/2624 32003KT P6SM SKC WS015/35035KT
     FM260800 33006KT P6SM SKC=

USA.gov is the U.S. government's official web portal to all federal, state and local government web resources and services.